CYOW/YOW METAR and TAF weather

Enter ICAO airport designator
Station Type Date Time Source
CYOW METAR 2022/12/08 12:00 UTC NOAA

CYOW 081200Z 36007KT 15SM FEW035 00/M01 A3028 RMK SC1 SC TR SLP262


Station Type Date Time Source
CYOW Decoded METAR 2022/12/08 12:00 UTC NOAA

Ottawa Int'L. Ont., Canada (CYOW) 45-19N 075-40W 114M
Dec 08, 2022 - 07:00 AM EST / 2022.12.08 1200 UTC
Wind: from the N (360 degrees) at 8 MPH (7 KT):0
Visibility: 15 mile(s):0
Sky conditions: mostly clear
Temperature: 32 F (0 C)
Windchill: 24 F (-4 C):1
Dew Point: 30 F (-1 C)
Relative Humidity: 92%
Pressure (altimeter): 30.28 in. Hg (1025 hPa)
ob: CYOW 081200Z 36007KT 15SM FEW035 00/M01 A3028 RMK SC1 SC TR SLP262
cycle: 12

Station Type Date Time Source
CYOW TAF 2022/12/08 12:45 UTC NOAA

TAF CYOW 081140Z 0812/0912 32008KT P6SM SCT015 BKN040
TEMPO 0812/0817 BKN015 OVC040
FM081700 32010KT P6SM SCT015
RMK NXT FCST BY 081500Z

Example: see airport list